sensor_id;sensor_type;location;lat;lon;timestamp;P1;durP1;ratioP1;P2;durP2;ratioP2
13319;SDS011;59599;47.608;12.190;2022-10-23T04:00:40;1.50;;;1.20;;
13319;SDS011;59599;47.608;12.190;2022-10-23T04:03:05;1.37;;;1.03;;
13319;SDS011;59599;47.608;12.190;2022-10-23T04:05:31;5.03;;;1.20;;
13319;SDS011;59599;47.608;12.190;2022-10-23T04:07:57;1.83;;;1.13;;
13319;SDS011;59599;47.608;12.190;2022-10-23T04:10:23;3.60;;;1.63;;
13319;SDS011;59599;47.608;12.190;2022-10-23T04:12:49;2.47;;;1.07;;
13319;SDS011;59599;47.608;12.190;2022-10-23T04:15:14;2.17;;;1.10;;
13319;SDS011;59599;47.608;12.190;2022-10-23T04:17:40;10.33;;;1.40;;
13319;SDS011;59599;47.608;12.190;2022-10-23T04:20:06;1.63;;;1.53;;
13319;SDS011;59599;47.608;12.190;2022-10-23T04:22:32;1.37;;;1.00;;
13319;SDS011;59599;47.608;12.190;2022-10-23T04:24:57;1.40;;;1.00;;
13319;SDS011;59599;47.608;12.190;2022-10-23T04:27:23;2.20;;;1.20;;
13319;SDS011;59599;47.608;12.190;2022-10-23T04:29:49;4.50;;;1.13;;
13319;SDS011;59599;47.608;12.190;2022-10-23T04:32:15;1.30;;;1.00;;
13319;SDS011;59599;47.608;12.190;2022-10-23T04:34:41;2.70;;;1.20;;
13319;SDS011;59599;47.608;12.190;2022-10-23T04:37:07;1.40;;;1.10;;
13319;SDS011;59599;47.608;12.190;2022-10-23T04:39:33;3.07;;;1.00;;
13319;SDS011;59599;47.608;12.190;2022-10-23T04:41:58;1.50;;;1.00;;
13319;SDS011;59599;47.608;12.190;2022-10-23T04:44:24;1.00;;;0.90;;
13319;SDS011;59599;47.608;12.190;2022-10-23T04:46:49;2.13;;;0.90;;
13319;SDS011;59599;47.608;12.190;2022-10-23T04:49:15;3.97;;;0.70;;
13319;SDS011;59599;47.608;12.190;2022-10-23T04:51:41;1.10;;;0.80;;
13319;SDS011;59599;47.608;12.190;2022-10-23T04:54:07;1.63;;;0.80;;
13319;SDS011;59599;47.608;12.190;2022-10-23T04:56:33;0.90;;;0.90;;
13319;SDS011;59599;47.608;12.190;2022-10-23T04:58:59;1.63;;;1.10;;
13319;SDS011;59599;47.608;12.190;2022-10-23T05:01:25;2.67;;;1.00;;
13319;SDS011;59599;47.608;12.190;2022-10-23T05:03:51;1.03;;;0.90;;
13319;SDS011;59599;47.608;12.190;2022-10-23T05:06:18;2.23;;;1.07;;
13319;SDS011;59599;47.608;12.190;2022-10-23T05:08:44;1.13;;;1.00;;
13319;SDS011;59599;47.608;12.190;2022-10-23T05:11:09;3.67;;;1.10;;
13319;SDS011;59599;47.608;12.190;2022-10-23T05:13:35;2.10;;;1.33;;
13319;SDS011;59599;47.608;12.190;2022-10-23T05:16:01;3.37;;;1.20;;
13319;SDS011;59599;47.608;12.190;2022-10-23T05:18:31;2.10;;;1.53;;
13319;SDS011;59599;47.608;12.190;2022-10-23T05:21:05;1.27;;;1.07;;
13319;SDS011;59599;47.608;12.190;2022-10-23T05:23:33;3.00;;;1.53;;
13319;SDS011;59599;47.608;12.190;2022-10-23T05:26:00;2.00;;;1.33;;
13319;SDS011;59599;47.608;12.190;2022-10-23T05:28:27;2.47;;;1.30;;
13319;SDS011;59599;47.608;12.190;2022-10-23T05:30:53;2.37;;;1.10;;
13319;SDS011;59599;47.608;12.190;2022-10-23T05:33:19;1.60;;;1.20;;
13319;SDS011;59599;47.608;12.190;2022-10-23T05:35:45;2.60;;;1.30;;
13319;SDS011;59599;47.608;12.190;2022-10-23T05:38:11;2.43;;;1.50;;
13319;SDS011;59599;47.608;12.190;2022-10-23T05:40:37;1.40;;;1.10;;
13319;SDS011;59599;47.608;12.190;2022-10-23T05:43:03;1.67;;;1.10;;
13319;SDS011;59599;47.608;12.190;2022-10-23T05:45:29;5.90;;;1.60;;
13319;SDS011;59599;47.608;12.190;2022-10-23T05:47:55;3.07;;;1.20;;
13319;SDS011;59599;47.608;12.190;2022-10-23T05:50:21;7.70;;;3.27;;
13319;SDS011;59599;47.608;12.190;2022-10-23T05:52:47;3.00;;;1.87;;
13319;SDS011;59599;47.608;12.190;2022-10-23T05:55:13;2.43;;;1.23;;
13319;SDS011;59599;47.608;12.190;2022-10-23T05:57:39;2.90;;;1.57;;
13319;SDS011;59599;47.608;12.190;2022-10-23T06:00:05;2.00;;;1.40;;
13319;SDS011;59599;47.608;12.190;2022-10-23T06:02:32;2.63;;;1.57;;
13319;SDS011;59599;47.608;12.190;2022-10-23T06:04:58;1.60;;;1.20;;
13319;SDS011;59599;47.608;12.190;2022-10-23T06:07:24;1.97;;;1.00;;
13319;SDS011;59599;47.608;12.190;2022-10-23T06:09:50;3.33;;;1.40;;
13319;SDS011;59599;47.608;12.190;2022-10-23T06:12:17;1.27;;;1.03;;
13319;SDS011;59599;47.608;12.190;2022-10-23T06:14:43;1.23;;;1.07;;
13319;SDS011;59599;47.608;12.190;2022-10-23T06:17:09;1.37;;;1.13;;
13319;SDS011;59599;47.608;12.190;2022-10-23T06:19:35;4.20;;;1.40;;
13319;SDS011;59599;47.608;12.190;2022-10-23T06:22:00;4.40;;;1.40;;
13319;SDS011;59599;47.608;12.190;2022-10-23T06:24:26;1.57;;;1.20;;
13319;SDS011;59599;47.608;12.190;2022-10-23T06:26:52;1.20;;;1.10;;
13319;SDS011;59599;47.608;12.190;2022-10-23T06:29:18;2.83;;;1.10;;
13319;SDS011;59599;47.608;12.190;2022-10-23T06:31:44;1.30;;;1.20;;
13319;SDS011;59599;47.608;12.190;2022-10-23T06:34:10;1.80;;;1.50;;
13319;SDS011;59599;47.608;12.190;2022-10-23T06:36:36;3.87;;;1.70;;
13319;SDS011;59599;47.608;12.190;2022-10-23T06:39:02;5.63;;;1.90;;
13319;SDS011;59599;47.608;12.190;2022-10-23T06:41:29;4.67;;;3.33;;
13319;SDS011;59599;47.608;12.190;2022-10-23T06:43:54;1.47;;;1.30;;
13319;SDS011;59599;47.608;12.190;2022-10-23T06:46:20;2.47;;;1.50;;
13319;SDS011;59599;47.608;12.190;2022-10-23T06:48:47;4.63;;;1.30;;
13319;SDS011;59599;47.608;12.190;2022-10-23T06:51:13;2.30;;;1.30;;
13319;SDS011;59599;47.608;12.190;2022-10-23T06:53:40;3.77;;;1.50;;
13319;SDS011;59599;47.608;12.190;2022-10-23T06:56:06;2.90;;;1.50;;
13319;SDS011;59599;47.608;12.190;2022-10-23T06:58:33;1.43;;;1.30;;
13319;SDS011;59599;47.608;12.190;2022-10-23T07:01:00;4.40;;;1.50;;
13319;SDS011;59599;47.608;12.190;2022-10-23T07:03:27;5.47;;;1.77;;
13319;SDS011;59599;47.608;12.190;2022-10-23T07:05:53;1.53;;;1.43;;
13319;SDS011;59599;47.608;12.190;2022-10-23T07:08:19;2.17;;;1.70;;
13319;SDS011;59599;47.608;12.190;2022-10-23T07:10:45;2.07;;;1.40;;
13319;SDS011;59599;47.608;12.190;2022-10-23T07:13:12;6.77;;;1.50;;
13319;SDS011;59599;47.608;12.190;2022-10-23T07:15:38;1.50;;;1.30;;
13319;SDS011;59599;47.608;12.190;2022-10-23T07:18:04;2.10;;;1.70;;
13319;SDS011;59599;47.608;12.190;2022-10-23T07:20:30;2.13;;;1.50;;
13319;SDS011;59599;47.608;12.190;2022-10-23T07:22:56;3.33;;;2.50;;
13319;SDS011;59599;47.608;12.190;2022-10-23T07:25:23;1.87;;;1.67;;
13319;SDS011;59599;47.608;12.190;2022-10-23T07:27:50;7.27;;;3.13;;
13319;SDS011;59599;47.608;12.190;2022-10-23T07:30:16;2.50;;;2.30;;
13319;SDS011;59599;47.608;12.190;2022-10-23T07:32:43;2.50;;;1.60;;
13319;SDS011;59599;47.608;12.190;2022-10-23T07:35:10;2.27;;;1.67;;
13319;SDS011;59599;47.608;12.190;2022-10-23T07:37:36;2.20;;;1.70;;
13319;SDS011;59599;47.608;12.190;2022-10-23T07:40:03;3.30;;;1.40;;
13319;SDS011;59599;47.608;12.190;2022-10-23T07:42:29;3.03;;;1.53;;
13319;SDS011;59599;47.608;12.190;2022-10-23T07:44:55;3.17;;;1.87;;
13319;SDS011;59599;47.608;12.190;2022-10-23T07:47:21;1.73;;;1.30;;
13319;SDS011;59599;47.608;12.190;2022-10-23T07:49:47;3.83;;;1.50;;
13319;SDS011;59599;47.608;12.190;2022-10-23T07:52:13;3.33;;;1.40;;
13319;SDS011;59599;47.608;12.190;2022-10-23T07:54:39;3.37;;;1.23;;
13319;SDS011;59599;47.608;12.190;2022-10-23T07:57:04;4.03;;;1.50;;
13319;SDS011;59599;47.608;12.190;2022-10-23T07:59:31;1.27;;;1.17;;
13319;SDS011;59599;47.608;12.190;2022-10-23T08:01:57;4.00;;;1.37;;
13319;SDS011;59599;47.608;12.190;2022-10-23T08:04:23;3.30;;;1.00;;
13319;SDS011;59599;47.608;12.190;2022-10-23T08:06:49;2.07;;;1.50;;
13319;SDS011;59599;47.608;12.190;2022-10-23T08:09:14;2.53;;;1.20;;
13319;SDS011;59599;47.608;12.190;2022-10-23T08:11:40;1.50;;;1.20;;
13319;SDS011;59599;47.608;12.190;2022-10-23T08:14:06;1.83;;;1.30;;
13319;SDS011;59599;47.608;12.190;2022-10-23T08:16:34;1.60;;;1.10;;
13319;SDS011;59599;47.608;12.190;2022-10-23T08:19:00;4.50;;;1.40;;
13319;SDS011;59599;47.608;12.190;2022-10-23T08:21:26;2.80;;;1.43;;
13319;SDS011;59599;47.608;12.190;2022-10-23T08:23:53;3.03;;;1.43;;
13319;SDS011;59599;47.608;12.190;2022-10-23T08:26:19;6.23;;;1.40;;
13319;SDS011;59599;47.608;12.190;2022-10-23T08:28:45;3.83;;;1.23;;
13319;SDS011;59599;47.608;12.190;2022-10-23T08:31:12;4.97;;;1.07;;
13319;SDS011;59599;47.608;12.190;2022-10-23T08:33:38;1.30;;;1.20;;
13319;SDS011;59599;47.608;12.190;2022-10-23T08:36:04;2.47;;;1.10;;
13319;SDS011;59599;47.608;12.190;2022-10-23T08:38:31;1.40;;;1.30;;
13319;SDS011;59599;47.608;12.190;2022-10-23T08:40:57;1.53;;;1.33;;
13319;SDS011;59599;47.608;12.190;2022-10-23T08:45:55;4.93;;;1.57;;
13319;SDS011;59599;47.608;12.190;2022-10-23T08:53:49;1.87;;;1.30;;
13319;SDS011;59599;47.608;12.190;2022-10-23T08:59:39;1.80;;;1.10;;
13319;SDS011;59599;47.608;12.190;2022-10-23T09:01:51;1.53;;;1.10;;
13319;SDS011;59599;47.608;12.190;2022-10-23T09:04:26;3.53;;;1.10;;
13319;SDS011;59599;47.608;12.190;2022-10-23T09:11:58;1.60;;;1.10;;
13319;SDS011;59599;47.608;12.190;2022-10-23T09:17:14;1.57;;;0.77;;
13319;SDS011;59599;47.608;12.190;2022-10-23T09:19:48;1.40;;;0.90;;
13319;SDS011;59599;47.608;12.190;2022-10-23T09:22:19;1.30;;;1.00;;
13319;SDS011;59599;47.608;12.190;2022-10-23T09:24:45;1.30;;;0.90;;
13319;SDS011;59599;47.608;12.190;2022-10-23T09:27:14;1.50;;;0.70;;
13319;SDS011;59599;47.608;12.190;2022-10-23T09:29:45;1.90;;;0.80;;
13319;SDS011;59599;47.608;12.190;2022-10-23T09:32:16;1.90;;;1.10;;
13319;SDS011;59599;47.608;12.190;2022-10-23T09:34:49;1.10;;;0.90;;
13319;SDS011;59599;47.608;12.190;2022-10-23T09:37:25;1.80;;;1.10;;
13319;SDS011;59599;47.608;12.190;2022-10-23T09:42:48;1.03;;;0.90;;
13319;SDS011;59599;47.608;12.190;2022-10-23T09:45:27;1.30;;;0.90;;
13319;SDS011;59599;47.608;12.190;2022-10-23T09:48:27;1.73;;;1.00;;
13319;SDS011;59599;47.608;12.190;2022-10-23T09:50:53;3.77;;;1.03;;
13319;SDS011;59599;47.608;12.190;2022-10-23T09:55:54;1.57;;;1.30;;
13319;SDS011;59599;47.608;12.190;2022-10-23T09:58:23;2.03;;;0.80;;
13319;SDS011;59599;47.608;12.190;2022-10-23T10:00:55;2.40;;;0.97;;
13319;SDS011;59599;47.608;12.190;2022-10-23T10:03:22;2.57;;;0.93;;
13319;SDS011;59599;47.608;12.190;2022-10-23T10:05:59;1.77;;;1.10;;
13319;SDS011;59599;47.608;12.190;2022-10-23T10:08:34;2.77;;;1.13;;
13319;SDS011;59599;47.608;12.190;2022-10-23T10:11:24;1.10;;;1.00;;
13319;SDS011;59599;47.608;12.190;2022-10-23T10:14:38;1.30;;;1.17;;
13319;SDS011;59599;47.608;12.190;2022-10-23T10:20:09;4.67;;;1.53;;
13319;SDS011;59599;47.608;12.190;2022-10-23T10:30:19;1.55;;;1.20;;
13319;SDS011;59599;47.608;12.190;2022-10-23T10:33:00;2.85;;;1.05;;
13319;SDS011;59599;47.608;12.190;2022-10-23T10:38:36;0.73;;;0.73;;
13319;SDS011;59599;47.608;12.190;2022-10-23T10:44:15;2.35;;;0.82;;
13319;SDS011;59599;47.608;12.190;2022-10-23T10:47:07;1.65;;;1.17;;
13319;SDS011;59599;47.608;12.190;2022-10-23T10:50:01;3.28;;;1.10;;
13319;SDS011;59599;47.608;12.190;2022-10-23T10:55:40;4.15;;;1.20;;
13319;SDS011;59599;47.608;12.190;2022-10-23T11:00:42;3.45;;;0.90;;
13319;SDS011;59599;47.608;12.190;2022-10-23T11:06:04;1.48;;;0.85;;
13319;SDS011;59599;47.608;12.190;2022-10-23T11:08:37;1.02;;;0.80;;
13319;SDS011;59599;47.608;12.190;2022-10-23T11:11:09;1.27;;;0.85;;
13319;SDS011;59599;47.608;12.190;2022-10-23T11:13:37;1.45;;;0.88;;
13319;SDS011;59599;47.608;12.190;2022-10-23T11:18:36;2.05;;;1.00;;
13319;SDS011;59599;47.608;12.190;2022-10-23T11:21:08;2.92;;;0.93;;
13319;SDS011;59599;47.608;12.190;2022-10-23T11:24:17;1.20;;;1.00;;
13319;SDS011;59599;47.608;12.190;2022-10-23T11:40:42;1.25;;;0.90;;
13319;SDS011;59599;47.608;12.190;2022-10-23T11:43:32;1.83;;;0.90;;
13319;SDS011;59599;47.608;12.190;2022-10-23T11:46:27;1.65;;;1.20;;
13319;SDS011;59599;47.608;12.190;2022-10-23T11:49:01;1.83;;;0.90;;
13319;SDS011;59599;47.608;12.190;2022-10-23T12:02:25;0.73;;;0.73;;
13319;SDS011;59599;47.608;12.190;2022-10-23T12:04:57;0.82;;;0.82;;
13319;SDS011;59599;47.608;12.190;2022-10-23T12:07:30;1.52;;;0.82;;
13319;SDS011;59599;47.608;12.190;2022-10-23T12:10:01;1.10;;;1.00;;
13319;SDS011;59599;47.608;12.190;2022-10-23T12:12:42;2.35;;;0.80;;
13319;SDS011;59599;47.608;12.190;2022-10-23T12:15:23;1.17;;;0.90;;
13319;SDS011;59599;47.608;12.190;2022-10-23T12:17:50;4.43;;;1.80;;
13319;SDS011;59599;47.608;12.190;2022-10-23T12:28:27;2.05;;;1.10;;
13319;SDS011;59599;47.608;12.190;2022-10-23T12:33:48;3.13;;;1.02;;
13319;SDS011;59599;47.608;12.190;2022-10-23T12:38:59;1.30;;;1.00;;
13319;SDS011;59599;47.608;12.190;2022-10-23T12:41:26;3.28;;;1.48;;
13319;SDS011;59599;47.608;12.190;2022-10-23T12:43:59;5.82;;;1.30;;
13319;SDS011;59599;47.608;12.190;2022-10-23T12:46:29;3.10;;;1.25;;
13319;SDS011;59599;47.608;12.190;2022-10-23T12:49:13;2.28;;;1.30;;
13319;SDS011;59599;47.608;12.190;2022-10-23T12:54:23;5.35;;;1.30;;
13319;SDS011;59599;47.608;12.190;2022-10-23T12:56:49;3.22;;;1.00;;
13319;SDS011;59599;47.608;12.190;2022-10-23T13:01:41;1.85;;;1.33;;
13319;SDS011;59599;47.608;12.190;2022-10-23T13:06:40;5.43;;;1.42;;
13319;SDS011;59599;47.608;12.190;2022-10-23T13:09:09;1.77;;;1.35;;
13319;SDS011;59599;47.608;12.190;2022-10-23T13:11:58;4.90;;;1.20;;
13319;SDS011;59599;47.608;12.190;2022-10-23T13:14:34;1.70;;;1.23;;
13319;SDS011;59599;47.608;12.190;2022-10-23T13:17:08;4.07;;;1.27;;
13319;SDS011;59599;47.608;12.190;2022-10-23T13:19:35;3.50;;;1.15;;
13319;SDS011;59599;47.608;12.190;2022-10-23T13:22:03;2.80;;;1.30;;
13319;SDS011;59599;47.608;12.190;2022-10-23T13:24:38;1.52;;;1.33;;
13319;SDS011;59599;47.608;12.190;2022-10-23T13:32:54;8.23;;;4.60;;
13319;SDS011;59599;47.608;12.190;2022-10-23T13:35:21;13.45;;;8.35;;
13319;SDS011;59599;47.608;12.190;2022-10-23T13:37:47;3.42;;;2.63;;
13319;SDS011;59599;47.608;12.190;2022-10-23T13:40:24;3.17;;;2.17;;
13319;SDS011;59599;47.608;12.190;2022-10-23T13:42:52;5.95;;;2.50;;
13319;SDS011;59599;47.608;12.190;2022-10-23T13:45:20;2.17;;;1.50;;
13319;SDS011;59599;47.608;12.190;2022-10-23T13:47:47;3.20;;;1.25;;
13319;SDS011;59599;47.608;12.190;2022-10-23T13:50:13;1.67;;;1.30;;
13319;SDS011;59599;47.608;12.190;2022-10-23T13:52:39;2.20;;;1.42;;
13319;SDS011;59599;47.608;12.190;2022-10-23T13:55:19;1.63;;;1.25;;
13319;SDS011;59599;47.608;12.190;2022-10-23T13:57:49;3.35;;;1.35;;
13319;SDS011;59599;47.608;12.190;2022-10-23T14:00:15;2.13;;;1.33;;
13319;SDS011;59599;47.608;12.190;2022-10-23T14:02:42;1.48;;;1.08;;
13319;SDS011;59599;47.608;12.190;2022-10-23T14:05:07;1.70;;;1.10;;
13319;SDS011;59599;47.608;12.190;2022-10-23T14:07:34;3.22;;;1.40;;
13319;SDS011;59599;47.608;12.190;2022-10-23T14:09:59;1.85;;;1.10;;
13319;SDS011;59599;47.608;12.190;2022-10-23T14:12:25;4.30;;;1.10;;
13319;SDS011;59599;47.608;12.190;2022-10-23T14:14:51;4.35;;;1.42;;
13319;SDS011;59599;47.608;12.190;2022-10-23T14:17:18;1.77;;;1.10;;
13319;SDS011;59599;47.608;12.190;2022-10-23T14:19:44;4.93;;;1.10;;
13319;SDS011;59599;47.608;12.190;2022-10-23T14:22:10;2.10;;;1.20;;
13319;SDS011;59599;47.608;12.190;2022-10-23T14:24:35;5.00;;;1.55;;
13319;SDS011;59599;47.608;12.190;2022-10-23T14:27:01;2.05;;;1.23;;
13319;SDS011;59599;47.608;12.190;2022-10-23T14:29:27;2.55;;;1.40;;
13319;SDS011;59599;47.608;12.190;2022-10-23T14:31:53;1.40;;;1.15;;
13319;SDS011;59599;47.608;12.190;2022-10-23T14:34:18;2.03;;;1.30;;
13319;SDS011;59599;47.608;12.190;2022-10-23T14:36:44;2.65;;;1.40;;
13319;SDS011;59599;47.608;12.190;2022-10-23T14:39:09;7.30;;;1.75;;
13319;SDS011;59599;47.608;12.190;2022-10-23T14:41:35;4.25;;;1.77;;
13319;SDS011;59599;47.608;12.190;2022-10-23T14:44:04;4.13;;;1.88;;
13319;SDS011;59599;47.608;12.190;2022-10-23T14:46:30;6.13;;;1.58;;
13319;SDS011;59599;47.608;12.190;2022-10-23T14:48:56;1.55;;;1.30;;
13319;SDS011;59599;47.608;12.190;2022-10-23T14:51:23;2.10;;;1.40;;
13319;SDS011;59599;47.608;12.190;2022-10-23T14:53:54;1.30;;;1.20;;
13319;SDS011;59599;47.608;12.190;2022-10-23T14:56:23;1.55;;;1.38;;
13319;SDS011;59599;47.608;12.190;2022-10-23T14:58:49;3.33;;;1.33;;
13319;SDS011;59599;47.608;12.190;2022-10-23T15:01:14;4.00;;;1.55;;
13319;SDS011;59599;47.608;12.190;2022-10-23T15:03:40;1.77;;;1.55;;
13319;SDS011;59599;47.608;12.190;2022-10-23T15:06:07;5.05;;;1.90;;
13319;SDS011;59599;47.608;12.190;2022-10-23T15:08:33;3.30;;;1.40;;
13319;SDS011;59599;47.608;12.190;2022-10-23T15:11:00;6.50;;;1.92;;
13319;SDS011;59599;47.608;12.190;2022-10-23T15:13:27;2.92;;;1.30;;
13319;SDS011;59599;47.608;12.190;2022-10-23T15:16:03;3.10;;;1.20;;
13319;SDS011;59599;47.608;12.190;2022-10-23T15:18:30;2.13;;;1.60;;
13319;SDS011;59599;47.608;12.190;2022-10-23T15:20:56;5.70;;;1.52;;
13319;SDS011;59599;47.608;12.190;2022-10-23T15:23:22;3.03;;;1.70;;
13319;SDS011;59599;47.608;12.190;2022-10-23T15:25:57;2.55;;;1.90;;
13319;SDS011;59599;47.608;12.190;2022-10-23T15:28:25;2.65;;;1.52;;
13319;SDS011;59599;47.608;12.190;2022-10-23T15:30:51;3.80;;;1.60;;
13319;SDS011;59599;47.608;12.190;2022-10-23T15:33:17;2.83;;;1.30;;
13319;SDS011;59599;47.608;12.190;2022-10-23T15:35:42;2.50;;;1.50;;
13319;SDS011;59599;47.608;12.190;2022-10-23T15:38:08;14.32;;;2.00;;
13319;SDS011;59599;47.608;12.190;2022-10-23T15:40:33;2.20;;;1.85;;
13319;SDS011;59599;47.608;12.190;2022-10-23T15:42:59;3.75;;;2.05;;
13319;SDS011;59599;47.608;12.190;2022-10-23T15:45:26;2.67;;;1.70;;
13319;SDS011;59599;47.608;12.190;2022-10-23T15:47:51;3.75;;;1.58;;
13319;SDS011;59599;47.608;12.190;2022-10-23T15:50:17;2.72;;;1.70;;
13319;SDS011;59599;47.608;12.190;2022-10-23T15:52:43;2.75;;;1.50;;
13319;SDS011;59599;47.608;12.190;2022-10-23T15:55:09;2.05;;;1.50;;
13319;SDS011;59599;47.608;12.190;2022-10-23T15:57:38;3.22;;;1.80;;
13319;SDS011;59599;47.608;12.190;2022-10-23T16:00:05;1.83;;;1.67;;
13319;SDS011;59599;47.608;12.190;2022-10-23T16:02:33;3.88;;;1.75;;
13319;SDS011;59599;47.608;12.190;2022-10-23T16:04:58;11.95;;;2.30;;
13319;SDS011;59599;47.608;12.190;2022-10-23T16:07:24;2.50;;;1.85;;
13319;SDS011;59599;47.608;12.190;2022-10-23T16:09:50;3.78;;;2.00;;
13319;SDS011;59599;47.608;12.190;2022-10-23T16:12:16;6.45;;;1.98;;
13319;SDS011;59599;47.608;12.190;2022-10-23T16:14:42;2.25;;;1.65;;
13319;SDS011;59599;47.608;12.190;2022-10-23T16:17:08;2.72;;;1.85;;
13319;SDS011;59599;47.608;12.190;2022-10-23T16:19:34;2.80;;;1.80;;
13319;SDS011;59599;47.608;12.190;2022-10-23T16:22:00;3.45;;;1.92;;
13319;SDS011;59599;47.608;12.190;2022-10-23T16:24:27;3.08;;;2.00;;
13319;SDS011;59599;47.608;12.190;2022-10-23T16:26:53;5.43;;;1.90;;
13319;SDS011;59599;47.608;12.190;2022-10-23T16:29:20;3.05;;;2.10;;
13319;SDS011;59599;47.608;12.190;2022-10-23T16:31:47;5.50;;;2.00;;
13319;SDS011;59599;47.608;12.190;2022-10-23T16:34:13;5.88;;;2.45;;
13319;SDS011;59599;47.608;12.190;2022-10-23T16:36:39;4.85;;;2.35;;
13319;SDS011;59599;47.608;12.190;2022-10-23T16:39:06;4.90;;;2.10;;
13319;SDS011;59599;47.608;12.190;2022-10-23T16:41:34;5.70;;;2.20;;
13319;SDS011;59599;47.608;12.190;2022-10-23T16:43:59;2.58;;;2.10;;
13319;SDS011;59599;47.608;12.190;2022-10-23T16:46:26;4.32;;;2.22;;
13319;SDS011;59599;47.608;12.190;2022-10-23T16:48:52;4.03;;;2.00;;
13319;SDS011;59599;47.608;12.190;2022-10-23T16:51:19;5.70;;;2.03;;
13319;SDS011;59599;47.608;12.190;2022-10-23T16:53:46;3.92;;;2.40;;
13319;SDS011;59599;47.608;12.190;2022-10-23T16:56:13;6.72;;;3.00;;
13319;SDS011;59599;47.608;12.190;2022-10-23T16:58:40;3.40;;;2.45;;
13319;SDS011;59599;47.608;12.190;2022-10-23T17:01:07;4.97;;;2.40;;
13319;SDS011;59599;47.608;12.190;2022-10-23T17:03:40;5.95;;;2.60;;
13319;SDS011;59599;47.608;12.190;2022-10-23T17:06:11;4.05;;;2.80;;
13319;SDS011;59599;47.608;12.190;2022-10-23T17:08:38;4.33;;;2.37;;
13319;SDS011;59599;47.608;12.190;2022-10-23T17:11:11;5.22;;;2.40;;
13319;SDS011;59599;47.608;12.190;2022-10-23T17:13:52;4.63;;;2.50;;
13319;SDS011;59599;47.608;12.190;2022-10-23T17:16:21;7.50;;;2.72;;
13319;SDS011;59599;47.608;12.190;2022-10-23T17:18:51;3.28;;;2.10;;
13319;SDS011;59599;47.608;12.190;2022-10-23T17:21:18;4.60;;;2.40;;
13319;SDS011;59599;47.608;12.190;2022-10-23T17:23:45;4.60;;;1.97;;
13319;SDS011;59599;47.608;12.190;2022-10-23T17:26:12;4.03;;;2.22;;
13319;SDS011;59599;47.608;12.190;2022-10-23T17:28:40;4.95;;;2.38;;
13319;SDS011;59599;47.608;12.190;2022-10-23T17:31:49;3.10;;;1.95;;
13319;SDS011;59599;47.608;12.190;2022-10-23T17:33:58;8.37;;;3.70;;
13319;SDS011;59599;47.608;12.190;2022-10-23T17:36:27;3.35;;;2.75;;
13319;SDS011;59599;47.608;12.190;2022-10-23T17:38:54;6.22;;;3.95;;
13319;SDS011;59599;47.608;12.190;2022-10-23T17:41:21;5.47;;;4.03;;
13319;SDS011;59599;47.608;12.190;2022-10-23T17:43:47;3.73;;;2.13;;
13319;SDS011;59599;47.608;12.190;2022-10-23T17:46:13;10.13;;;2.35;;
13319;SDS011;59599;47.608;12.190;2022-10-23T17:48:40;4.03;;;2.50;;
13319;SDS011;59599;47.608;12.190;2022-10-23T17:51:19;5.53;;;3.13;;
13319;SDS011;59599;47.608;12.190;2022-10-23T17:53:48;5.03;;;2.57;;
13319;SDS011;59599;47.608;12.190;2022-10-23T17:56:16;4.37;;;2.67;;
13319;SDS011;59599;47.608;12.190;2022-10-23T17:58:53;7.83;;;3.40;;
13319;SDS011;59599;47.608;12.190;2022-10-23T18:01:23;5.17;;;3.07;;
13319;SDS011;59599;47.608;12.190;2022-10-23T18:03:51;6.30;;;3.33;;
13319;SDS011;59599;47.608;12.190;2022-10-23T18:06:21;12.70;;;4.60;;
13319;SDS011;59599;47.608;12.190;2022-10-23T18:08:49;3.37;;;2.50;;
13319;SDS011;59599;47.608;12.190;2022-10-23T18:13:44;5.47;;;2.50;;
13319;SDS011;59599;47.608;12.190;2022-10-23T18:16:10;3.70;;;2.33;;
13319;SDS011;59599;47.608;12.190;2022-10-23T18:18:36;4.33;;;2.40;;
13319;SDS011;59599;47.608;12.190;2022-10-23T18:21:03;5.53;;;2.87;;
13319;SDS011;59599;47.608;12.190;2022-10-23T18:23:29;4.20;;;2.77;;
13319;SDS011;59599;47.608;12.190;2022-10-23T18:25:56;4.57;;;2.20;;
13319;SDS011;59599;47.608;12.190;2022-10-23T18:28:22;6.80;;;2.30;;
13319;SDS011;59599;47.608;12.190;2022-10-23T18:30:49;3.70;;;2.40;;
13319;SDS011;59599;47.608;12.190;2022-10-23T18:33:15;8.17;;;2.77;;
13319;SDS011;59599;47.608;12.190;2022-10-23T18:35:41;7.80;;;3.03;;
13319;SDS011;59599;47.608;12.190;2022-10-23T18:38:07;5.57;;;2.60;;
13319;SDS011;59599;47.608;12.190;2022-10-23T18:40:34;3.60;;;2.37;;
13319;SDS011;59599;47.608;12.190;2022-10-23T18:43:01;9.53;;;4.53;;
13319;SDS011;59599;47.608;12.190;2022-10-23T18:45:27;13.82;;;6.40;;
13319;SDS011;59599;47.608;12.190;2022-10-23T18:47:53;19.00;;;8.67;;
13319;SDS011;59599;47.608;12.190;2022-10-23T18:50:18;11.33;;;6.33;;
13319;SDS011;59599;47.608;12.190;2022-10-23T18:52:44;14.70;;;7.20;;
13319;SDS011;59599;47.608;12.190;2022-10-23T18:55:10;8.93;;;6.00;;
13319;SDS011;59599;47.608;12.190;2022-10-23T18:57:36;9.20;;;4.30;;
13319;SDS011;59599;47.608;12.190;2022-10-23T19:00:06;11.07;;;5.03;;
13319;SDS011;59599;47.608;12.190;2022-10-23T19:02:33;8.07;;;4.77;;
13319;SDS011;59599;47.608;12.190;2022-10-23T19:05:00;5.20;;;3.70;;
13319;SDS011;59599;47.608;12.190;2022-10-23T19:07:26;7.70;;;3.10;;
13319;SDS011;59599;47.608;12.190;2022-10-23T19:09:53;10.77;;;3.00;;
13319;SDS011;59599;47.608;12.190;2022-10-23T19:12:20;4.73;;;2.77;;
13319;SDS011;59599;47.608;12.190;2022-10-23T19:14:46;3.93;;;3.00;;
13319;SDS011;59599;47.608;12.190;2022-10-23T19:17:16;3.73;;;2.97;;
13319;SDS011;59599;47.608;12.190;2022-10-23T19:19:51;5.37;;;3.00;;
13319;SDS011;59599;47.608;12.190;2022-10-23T19:22:20;5.20;;;3.87;;
13319;SDS011;59599;47.608;12.190;2022-10-23T19:24:48;9.10;;;4.90;;
13319;SDS011;59599;47.608;12.190;2022-10-23T19:27:17;9.17;;;4.93;;
13319;SDS011;59599;47.608;12.190;2022-10-23T19:29:43;7.97;;;4.37;;
13319;SDS011;59599;47.608;12.190;2022-10-23T19:32:11;10.50;;;5.47;;
13319;SDS011;59599;47.608;12.190;2022-10-23T19:34:37;7.73;;;4.90;;
13319;SDS011;59599;47.608;12.190;2022-10-23T19:37:03;8.83;;;4.77;;
13319;SDS011;59599;47.608;12.190;2022-10-23T19:39:28;10.67;;;4.73;;
13319;SDS011;59599;47.608;12.190;2022-10-23T19:41:54;7.90;;;4.43;;
13319;SDS011;59599;47.608;12.190;2022-10-23T19:44:21;10.17;;;3.63;;
13319;SDS011;59599;47.608;12.190;2022-10-23T19:46:47;5.67;;;2.83;;
13319;SDS011;59599;47.608;12.190;2022-10-23T19:49:13;7.67;;;2.57;;
13319;SDS011;59599;47.608;12.190;2022-10-23T19:51:41;5.07;;;2.27;;
13319;SDS011;59599;47.608;12.190;2022-10-23T19:54:09;4.43;;;2.83;;
13319;SDS011;59599;47.608;12.190;2022-10-23T19:56:35;4.93;;;2.47;;
13319;SDS011;59599;47.608;12.190;2022-10-23T19:59:01;6.50;;;2.43;;
13319;SDS011;59599;47.608;12.190;2022-10-23T20:01:27;4.80;;;1.93;;
13319;SDS011;59599;47.608;12.190;2022-10-23T20:03:53;5.37;;;2.20;;
13319;SDS011;59599;47.608;12.190;2022-10-23T20:06:30;5.57;;;2.80;;
13319;SDS011;59599;47.608;12.190;2022-10-23T20:08:58;7.10;;;2.50;;
13319;SDS011;59599;47.608;12.190;2022-10-23T20:11:26;3.17;;;2.20;;
13319;SDS011;59599;47.608;12.190;2022-10-23T20:13:53;3.93;;;2.40;;
13319;SDS011;59599;47.608;12.190;2022-10-23T20:16:24;5.53;;;2.67;;
13319;SDS011;59599;47.608;12.190;2022-10-23T20:18:51;6.93;;;2.60;;
13319;SDS011;59599;47.608;12.190;2022-10-23T20:21:17;7.37;;;2.50;;
13319;SDS011;59599;47.608;12.190;2022-10-23T20:23:43;4.40;;;2.53;;
13319;SDS011;59599;47.608;12.190;2022-10-23T20:26:10;7.97;;;2.60;;